sensor_id;sensor_type;location;lat;lon;timestamp;P1;durP1;ratioP1;P2;durP2;ratioP2
18544;SDS011;9402;51.460;7.276;2022-10-31T00:00:58;8.63;;;4.40;;
18544;SDS011;9402;51.460;7.276;2022-10-31T00:03:01;10.93;;;3.70;;
18544;SDS011;9402;51.460;7.276;2022-10-31T00:05:04;12.00;;;4.03;;
18544;SDS011;9402;51.460;7.276;2022-10-31T00:07:06;11.27;;;4.20;;
18544;SDS011;9402;51.460;7.276;2022-10-31T00:09:09;8.40;;;3.77;;
18544;SDS011;9402;51.460;7.276;2022-10-31T00:11:11;12.43;;;4.07;;
18544;SDS011;9402;51.460;7.276;2022-10-31T00:13:14;11.40;;;4.10;;
18544;SDS011;9402;51.460;7.276;2022-10-31T00:15:18;9.37;;;4.40;;
18544;SDS011;9402;51.460;7.276;2022-10-31T00:17:20;11.90;;;4.13;;
18544;SDS011;9402;51.460;7.276;2022-10-31T00:19:22;7.17;;;3.97;;
18544;SDS011;9402;51.460;7.276;2022-10-31T00:21:25;15.13;;;4.93;;
18544;SDS011;9402;51.460;7.276;2022-10-31T00:23:28;8.07;;;3.80;;
18544;SDS011;9402;51.460;7.276;2022-10-31T00:25:32;11.03;;;4.90;;
18544;SDS011;9402;51.460;7.276;2022-10-31T00:27:36;13.20;;;3.70;;
18544;SDS011;9402;51.460;7.276;2022-10-31T00:29:38;21.10;;;4.60;;
18544;SDS011;9402;51.460;7.276;2022-10-31T00:31:42;9.33;;;4.03;;
18544;SDS011;9402;51.460;7.276;2022-10-31T00:33:44;8.83;;;4.03;;
18544;SDS011;9402;51.460;7.276;2022-10-31T00:35:49;12.50;;;4.87;;
18544;SDS011;9402;51.460;7.276;2022-10-31T00:37:52;11.03;;;4.13;;
18544;SDS011;9402;51.460;7.276;2022-10-31T00:39:55;8.13;;;4.10;;
18544;SDS011;9402;51.460;7.276;2022-10-31T00:41:57;9.70;;;4.13;;
18544;SDS011;9402;51.460;7.276;2022-10-31T00:44:00;14.83;;;4.23;;
18544;SDS011;9402;51.460;7.276;2022-10-31T00:46:02;11.17;;;3.83;;
18544;SDS011;9402;51.460;7.276;2022-10-31T00:48:06;9.33;;;4.50;;
18544;SDS011;9402;51.460;7.276;2022-10-31T00:50:08;8.53;;;4.00;;
18544;SDS011;9402;51.460;7.276;2022-10-31T00:52:11;9.00;;;4.27;;
18544;SDS011;9402;51.460;7.276;2022-10-31T00:54:13;10.90;;;4.20;;
18544;SDS011;9402;51.460;7.276;2022-10-31T00:56:16;20.70;;;5.10;;
18544;SDS011;9402;51.460;7.276;2022-10-31T00:58:18;20.13;;;4.50;;
18544;SDS011;9402;51.460;7.276;2022-10-31T01:00:21;10.20;;;4.00;;
18544;SDS011;9402;51.460;7.276;2022-10-31T01:02:23;10.30;;;4.33;;
18544;SDS011;9402;51.460;7.276;2022-10-31T01:04:27;6.97;;;3.93;;
18544;SDS011;9402;51.460;7.276;2022-10-31T01:06:29;15.10;;;4.70;;
18544;SDS011;9402;51.460;7.276;2022-10-31T01:08:32;8.50;;;3.33;;
18544;SDS011;9402;51.460;7.276;2022-10-31T01:10:34;8.97;;;3.83;;
18544;SDS011;9402;51.460;7.276;2022-10-31T01:12:36;10.07;;;3.90;;
18544;SDS011;9402;51.460;7.276;2022-10-31T01:14:42;8.13;;;4.30;;
18544;SDS011;9402;51.460;7.276;2022-10-31T01:16:44;11.07;;;3.40;;
18544;SDS011;9402;51.460;7.276;2022-10-31T01:18:47;16.77;;;4.70;;
18544;SDS011;9402;51.460;7.276;2022-10-31T01:20:57;9.30;;;4.87;;
18544;SDS011;9402;51.460;7.276;2022-10-31T01:23:01;14.77;;;5.57;;
18544;SDS011;9402;51.460;7.276;2022-10-31T01:25:04;18.23;;;5.33;;
18544;SDS011;9402;51.460;7.276;2022-10-31T01:27:07;15.90;;;4.27;;
18544;SDS011;9402;51.460;7.276;2022-10-31T01:29:09;10.27;;;4.57;;
18544;SDS011;9402;51.460;7.276;2022-10-31T01:31:12;10.00;;;3.83;;
18544;SDS011;9402;51.460;7.276;2022-10-31T01:33:15;10.70;;;4.50;;
18544;SDS011;9402;51.460;7.276;2022-10-31T01:35:17;11.90;;;4.50;;
18544;SDS011;9402;51.460;7.276;2022-10-31T01:37:21;11.00;;;5.40;;
18544;SDS011;9402;51.460;7.276;2022-10-31T01:39:23;13.47;;;5.00;;
18544;SDS011;9402;51.460;7.276;2022-10-31T01:41:27;8.57;;;4.10;;
18544;SDS011;9402;51.460;7.276;2022-10-31T01:43:41;7.70;;;4.60;;
18544;SDS011;9402;51.460;7.276;2022-10-31T01:45:46;13.97;;;3.80;;
18544;SDS011;9402;51.460;7.276;2022-10-31T01:47:52;10.23;;;4.10;;
18544;SDS011;9402;51.460;7.276;2022-10-31T01:49:54;8.73;;;3.27;;
18544;SDS011;9402;51.460;7.276;2022-10-31T01:52:00;13.47;;;4.03;;
18544;SDS011;9402;51.460;7.276;2022-10-31T01:54:07;10.13;;;3.73;;
18544;SDS011;9402;51.460;7.276;2022-10-31T01:56:13;9.83;;;4.37;;
18544;SDS011;9402;51.460;7.276;2022-10-31T01:58:16;7.00;;;4.00;;
18544;SDS011;9402;51.460;7.276;2022-10-31T02:00:21;9.00;;;4.10;;
18544;SDS011;9402;51.460;7.276;2022-10-31T02:02:24;8.50;;;4.00;;
18544;SDS011;9402;51.460;7.276;2022-10-31T02:04:27;14.93;;;4.10;;
18544;SDS011;9402;51.460;7.276;2022-10-31T02:06:32;12.97;;;5.03;;
18544;SDS011;9402;51.460;7.276;2022-10-31T02:08:37;9.20;;;5.03;;
18544;SDS011;9402;51.460;7.276;2022-10-31T02:10:42;8.10;;;4.27;;
18544;SDS011;9402;51.460;7.276;2022-10-31T02:12:45;10.63;;;3.83;;
18544;SDS011;9402;51.460;7.276;2022-10-31T02:14:48;8.77;;;4.60;;
18544;SDS011;9402;51.460;7.276;2022-10-31T02:16:50;12.87;;;4.40;;
18544;SDS011;9402;51.460;7.276;2022-10-31T02:18:52;11.60;;;4.67;;
18544;SDS011;9402;51.460;7.276;2022-10-31T02:20:58;9.57;;;4.33;;
18544;SDS011;9402;51.460;7.276;2022-10-31T02:23:12;10.43;;;4.17;;
18544;SDS011;9402;51.460;7.276;2022-10-31T02:25:46;8.17;;;3.90;;
18544;SDS011;9402;51.460;7.276;2022-10-31T02:28:10;11.57;;;4.87;;
18544;SDS011;9402;51.460;7.276;2022-10-31T02:30:22;7.80;;;4.30;;
18544;SDS011;9402;51.460;7.276;2022-10-31T02:32:27;12.63;;;4.30;;
18544;SDS011;9402;51.460;7.276;2022-10-31T02:34:36;16.30;;;4.70;;
18544;SDS011;9402;51.460;7.276;2022-10-31T02:36:42;12.20;;;4.77;;
18544;SDS011;9402;51.460;7.276;2022-10-31T02:38:49;13.63;;;4.30;;
18544;SDS011;9402;51.460;7.276;2022-10-31T02:40:59;8.93;;;4.10;;
18544;SDS011;9402;51.460;7.276;2022-10-31T02:43:06;7.43;;;4.10;;
18544;SDS011;9402;51.460;7.276;2022-10-31T02:45:14;12.67;;;4.67;;
18544;SDS011;9402;51.460;7.276;2022-10-31T02:47:21;16.60;;;5.07;;
18544;SDS011;9402;51.460;7.276;2022-10-31T02:49:27;10.20;;;4.70;;
18544;SDS011;9402;51.460;7.276;2022-10-31T02:51:32;15.33;;;4.47;;
18544;SDS011;9402;51.460;7.276;2022-10-31T02:53:35;8.60;;;3.90;;
18544;SDS011;9402;51.460;7.276;2022-10-31T02:55:42;7.30;;;3.97;;
18544;SDS011;9402;51.460;7.276;2022-10-31T02:57:56;15.77;;;5.13;;
18544;SDS011;9402;51.460;7.276;2022-10-31T03:00:03;21.27;;;5.77;;
18544;SDS011;9402;51.460;7.276;2022-10-31T03:02:14;10.20;;;5.37;;
18544;SDS011;9402;51.460;7.276;2022-10-31T03:04:40;17.47;;;4.50;;
18544;SDS011;9402;51.460;7.276;2022-10-31T03:06:49;10.57;;;4.53;;
18544;SDS011;9402;51.460;7.276;2022-10-31T03:08:56;13.43;;;5.87;;
18544;SDS011;9402;51.460;7.276;2022-10-31T03:11:04;17.93;;;5.67;;
18544;SDS011;9402;51.460;7.276;2022-10-31T03:13:09;8.83;;;4.57;;
18544;SDS011;9402;51.460;7.276;2022-10-31T03:15:14;11.00;;;4.50;;
18544;SDS011;9402;51.460;7.276;2022-10-31T03:17:21;17.27;;;3.80;;
18544;SDS011;9402;51.460;7.276;2022-10-31T03:19:28;15.63;;;5.20;;
18544;SDS011;9402;51.460;7.276;2022-10-31T03:21:34;11.40;;;4.50;;
18544;SDS011;9402;51.460;7.276;2022-10-31T03:23:40;9.63;;;4.17;;
18544;SDS011;9402;51.460;7.276;2022-10-31T03:25:45;14.13;;;4.50;;
18544;SDS011;9402;51.460;7.276;2022-10-31T03:27:49;13.07;;;4.80;;
18544;SDS011;9402;51.460;7.276;2022-10-31T03:29:53;10.77;;;6.00;;
18544;SDS011;9402;51.460;7.276;2022-10-31T03:31:58;14.70;;;5.43;;
18544;SDS011;9402;51.460;7.276;2022-10-31T03:34:02;10.53;;;4.20;;
18544;SDS011;9402;51.460;7.276;2022-10-31T03:36:05;9.17;;;4.77;;
18544;SDS011;9402;51.460;7.276;2022-10-31T03:38:10;10.63;;;4.70;;
18544;SDS011;9402;51.460;7.276;2022-10-31T03:40:13;13.93;;;4.17;;
18544;SDS011;9402;51.460;7.276;2022-10-31T03:42:18;13.43;;;4.07;;
18544;SDS011;9402;51.460;7.276;2022-10-31T03:44:23;14.37;;;4.43;;
18544;SDS011;9402;51.460;7.276;2022-10-31T03:46:26;11.17;;;5.43;;
18544;SDS011;9402;51.460;7.276;2022-10-31T03:48:29;11.07;;;4.60;;
18544;SDS011;9402;51.460;7.276;2022-10-31T03:50:33;11.67;;;4.47;;
18544;SDS011;9402;51.460;7.276;2022-10-31T03:52:41;11.57;;;4.77;;
18544;SDS011;9402;51.460;7.276;2022-10-31T03:54:51;9.30;;;4.50;;
18544;SDS011;9402;51.460;7.276;2022-10-31T03:56:56;12.97;;;4.00;;
18544;SDS011;9402;51.460;7.276;2022-10-31T03:59:02;13.20;;;5.30;;
18544;SDS011;9402;51.460;7.276;2022-10-31T04:01:07;11.80;;;4.90;;
18544;SDS011;9402;51.460;7.276;2022-10-31T04:03:12;11.70;;;5.10;;
18544;SDS011;9402;51.460;7.276;2022-10-31T04:05:17;14.47;;;5.40;;
18544;SDS011;9402;51.460;7.276;2022-10-31T04:07:20;18.73;;;5.53;;
18544;SDS011;9402;51.460;7.276;2022-10-31T04:09:24;10.60;;;5.17;;
18544;SDS011;9402;51.460;7.276;2022-10-31T04:11:29;12.43;;;5.10;;
18544;SDS011;9402;51.460;7.276;2022-10-31T04:13:34;11.47;;;5.20;;
18544;SDS011;9402;51.460;7.276;2022-10-31T04:15:38;14.43;;;5.80;;
18544;SDS011;9402;51.460;7.276;2022-10-31T04:17:41;15.43;;;5.83;;
18544;SDS011;9402;51.460;7.276;2022-10-31T04:19:45;19.27;;;5.67;;
18544;SDS011;9402;51.460;7.276;2022-10-31T04:21:47;18.23;;;4.93;;
18544;SDS011;9402;51.460;7.276;2022-10-31T04:23:50;24.47;;;5.33;;
18544;SDS011;9402;51.460;7.276;2022-10-31T04:25:52;12.13;;;5.03;;
18544;SDS011;9402;51.460;7.276;2022-10-31T04:27:56;16.80;;;5.53;;
18544;SDS011;9402;51.460;7.276;2022-10-31T04:29:58;24.53;;;5.73;;
18544;SDS011;9402;51.460;7.276;2022-10-31T04:32:01;19.13;;;7.03;;
18544;SDS011;9402;51.460;7.276;2022-10-31T04:34:03;15.70;;;6.30;;
18544;SDS011;9402;51.460;7.276;2022-10-31T04:36:07;23.83;;;6.73;;
18544;SDS011;9402;51.460;7.276;2022-10-31T04:38:10;10.70;;;5.60;;
18544;SDS011;9402;51.460;7.276;2022-10-31T04:40:12;17.10;;;5.30;;
18544;SDS011;9402;51.460;7.276;2022-10-31T04:42:14;15.13;;;5.60;;
18544;SDS011;9402;51.460;7.276;2022-10-31T04:44:18;11.43;;;5.87;;
18544;SDS011;9402;51.460;7.276;2022-10-31T04:46:21;11.70;;;5.50;;
18544;SDS011;9402;51.460;7.276;2022-10-31T04:48:24;9.17;;;5.23;;
18544;SDS011;9402;51.460;7.276;2022-10-31T04:50:26;9.97;;;5.03;;
18544;SDS011;9402;51.460;7.276;2022-10-31T04:52:28;10.30;;;5.50;;
18544;SDS011;9402;51.460;7.276;2022-10-31T04:54:31;10.37;;;5.20;;
18544;SDS011;9402;51.460;7.276;2022-10-31T04:56:33;15.57;;;4.53;;
18544;SDS011;9402;51.460;7.276;2022-10-31T04:58:36;14.77;;;5.30;;
18544;SDS011;9402;51.460;7.276;2022-10-31T05:00:39;9.50;;;4.83;;
18544;SDS011;9402;51.460;7.276;2022-10-31T05:02:42;12.63;;;4.57;;
18544;SDS011;9402;51.460;7.276;2022-10-31T05:04:45;13.57;;;5.57;;
18544;SDS011;9402;51.460;7.276;2022-10-31T05:06:47;16.13;;;5.73;;
18544;SDS011;9402;51.460;7.276;2022-10-31T05:08:50;13.90;;;5.90;;
18544;SDS011;9402;51.460;7.276;2022-10-31T05:10:52;14.97;;;5.83;;
18544;SDS011;9402;51.460;7.276;2022-10-31T05:12:55;22.00;;;5.93;;
18544;SDS011;9402;51.460;7.276;2022-10-31T05:14:58;17.30;;;5.87;;
18544;SDS011;9402;51.460;7.276;2022-10-31T05:17:02;9.93;;;4.97;;
18544;SDS011;9402;51.460;7.276;2022-10-31T05:19:04;11.47;;;5.20;;
18544;SDS011;9402;51.460;7.276;2022-10-31T05:21:07;9.87;;;4.87;;
18544;SDS011;9402;51.460;7.276;2022-10-31T05:23:09;12.87;;;5.67;;
18544;SDS011;9402;51.460;7.276;2022-10-31T05:25:11;9.07;;;5.20;;
18544;SDS011;9402;51.460;7.276;2022-10-31T05:27:14;13.70;;;6.03;;
18544;SDS011;9402;51.460;7.276;2022-10-31T05:29:16;17.03;;;5.37;;
18544;SDS011;9402;51.460;7.276;2022-10-31T05:31:19;11.87;;;5.23;;
18544;SDS011;9402;51.460;7.276;2022-10-31T05:33:22;11.77;;;5.27;;
18544;SDS011;9402;51.460;7.276;2022-10-31T05:35:26;10.30;;;4.83;;
18544;SDS011;9402;51.460;7.276;2022-10-31T05:37:29;8.57;;;4.23;;
18544;SDS011;9402;51.460;7.276;2022-10-31T05:39:31;3.43;;;2.63;;
18544;SDS011;9402;51.460;7.276;2022-10-31T05:41:33;8.73;;;3.27;;
18544;SDS011;9402;51.460;7.276;2022-10-31T05:43:36;12.67;;;5.67;;
18544;SDS011;9402;51.460;7.276;2022-10-31T05:45:39;20.23;;;5.30;;
18544;SDS011;9402;51.460;7.276;2022-10-31T05:47:41;12.90;;;5.80;;
18544;SDS011;9402;51.460;7.276;2022-10-31T05:49:45;16.00;;;5.03;;
18544;SDS011;9402;51.460;7.276;2022-10-31T05:51:47;14.03;;;5.50;;
18544;SDS011;9402;51.460;7.276;2022-10-31T05:53:50;18.60;;;6.50;;
18544;SDS011;9402;51.460;7.276;2022-10-31T05:55:53;14.77;;;5.53;;
18544;SDS011;9402;51.460;7.276;2022-10-31T05:57:56;23.73;;;6.43;;
18544;SDS011;9402;51.460;7.276;2022-10-31T05:59:58;11.17;;;5.33;;
18544;SDS011;9402;51.460;7.276;2022-10-31T06:02:01;13.90;;;5.30;;
18544;SDS011;9402;51.460;7.276;2022-10-31T06:04:03;24.37;;;5.00;;
18544;SDS011;9402;51.460;7.276;2022-10-31T06:06:07;9.10;;;4.60;;
18544;SDS011;9402;51.460;7.276;2022-10-31T06:08:10;15.70;;;5.20;;
18544;SDS011;9402;51.460;7.276;2022-10-31T06:10:12;19.83;;;4.40;;
18544;SDS011;9402;51.460;7.276;2022-10-31T06:12:14;28.97;;;7.17;;
18544;SDS011;9402;51.460;7.276;2022-10-31T06:14:17;24.07;;;4.70;;
18544;SDS011;9402;51.460;7.276;2022-10-31T06:16:19;11.13;;;3.83;;
18544;SDS011;9402;51.460;7.276;2022-10-31T06:18:21;5.90;;;3.83;;
18544;SDS011;9402;51.460;7.276;2022-10-31T06:20:24;9.13;;;4.00;;
18544;SDS011;9402;51.460;7.276;2022-10-31T06:22:28;10.77;;;4.67;;
18544;SDS011;9402;51.460;7.276;2022-10-31T06:24:30;9.60;;;4.40;;
18544;SDS011;9402;51.460;7.276;2022-10-31T06:26:32;14.93;;;5.07;;
18544;SDS011;9402;51.460;7.276;2022-10-31T06:28:35;11.93;;;4.80;;
18544;SDS011;9402;51.460;7.276;2022-10-31T06:30:37;13.30;;;4.77;;
18544;SDS011;9402;51.460;7.276;2022-10-31T06:32:40;16.77;;;5.73;;
18544;SDS011;9402;51.460;7.276;2022-10-31T06:34:42;18.30;;;5.60;;
18544;SDS011;9402;51.460;7.276;2022-10-31T06:36:50;15.60;;;6.10;;
18544;SDS011;9402;51.460;7.276;2022-10-31T06:38:54;19.37;;;6.30;;
18544;SDS011;9402;51.460;7.276;2022-10-31T06:40:56;14.30;;;5.47;;
18544;SDS011;9402;51.460;7.276;2022-10-31T06:42:59;21.40;;;8.30;;
18544;SDS011;9402;51.460;7.276;2022-10-31T06:45:02;13.37;;;5.70;;
18544;SDS011;9402;51.460;7.276;2022-10-31T06:47:05;15.43;;;6.30;;
18544;SDS011;9402;51.460;7.276;2022-10-31T06:49:07;15.77;;;7.03;;
18544;SDS011;9402;51.460;7.276;2022-10-31T06:51:09;16.17;;;5.90;;
18544;SDS011;9402;51.460;7.276;2022-10-31T06:53:12;16.60;;;7.03;;
18544;SDS011;9402;51.460;7.276;2022-10-31T06:55:16;30.97;;;6.33;;
18544;SDS011;9402;51.460;7.276;2022-10-31T06:57:20;26.60;;;6.90;;
18544;SDS011;9402;51.460;7.276;2022-10-31T06:59:23;21.07;;;7.53;;
18544;SDS011;9402;51.460;7.276;2022-10-31T07:01:25;13.73;;;5.63;;
18544;SDS011;9402;51.460;7.276;2022-10-31T07:03:28;19.90;;;7.13;;
18544;SDS011;9402;51.460;7.276;2022-10-31T07:05:30;21.83;;;7.13;;
18544;SDS011;9402;51.460;7.276;2022-10-31T07:07:33;13.40;;;5.80;;
18544;SDS011;9402;51.460;7.276;2022-10-31T07:09:35;25.87;;;7.20;;
18544;SDS011;9402;51.460;7.276;2022-10-31T07:11:39;16.37;;;6.50;;
18544;SDS011;9402;51.460;7.276;2022-10-31T07:13:41;20.00;;;6.90;;
18544;SDS011;9402;51.460;7.276;2022-10-31T07:15:44;16.23;;;6.80;;
18544;SDS011;9402;51.460;7.276;2022-10-31T07:17:46;16.40;;;7.03;;
18544;SDS011;9402;51.460;7.276;2022-10-31T07:19:48;14.27;;;6.40;;
18544;SDS011;9402;51.460;7.276;2022-10-31T07:21:51;15.80;;;6.30;;
18544;SDS011;9402;51.460;7.276;2022-10-31T07:23:53;12.37;;;6.67;;
18544;SDS011;9402;51.460;7.276;2022-10-31T07:25:56;19.40;;;6.60;;
18544;SDS011;9402;51.460;7.276;2022-10-31T07:28:00;17.23;;;6.83;;
18544;SDS011;9402;51.460;7.276;2022-10-31T07:30:03;15.40;;;5.80;;
18544;SDS011;9402;51.460;7.276;2022-10-31T07:32:06;18.90;;;6.17;;
18544;SDS011;9402;51.460;7.276;2022-10-31T07:34:09;32.13;;;7.40;;
18544;SDS011;9402;51.460;7.276;2022-10-31T07:36:11;17.30;;;7.13;;
18544;SDS011;9402;51.460;7.276;2022-10-31T07:38:14;16.40;;;7.17;;
18544;SDS011;9402;51.460;7.276;2022-10-31T07:40:17;31.73;;;7.10;;
18544;SDS011;9402;51.460;7.276;2022-10-31T07:42:20;21.63;;;7.33;;
18544;SDS011;9402;51.460;7.276;2022-10-31T07:44:23;15.20;;;5.60;;
18544;SDS011;9402;51.460;7.276;2022-10-31T07:46:26;32.97;;;7.43;;
18544;SDS011;9402;51.460;7.276;2022-10-31T07:48:28;20.70;;;8.10;;
18544;SDS011;9402;51.460;7.276;2022-10-31T07:50:31;18.60;;;7.00;;
18544;SDS011;9402;51.460;7.276;2022-10-31T07:52:34;18.10;;;6.43;;
18544;SDS011;9402;51.460;7.276;2022-10-31T07:54:36;15.93;;;7.03;;
18544;SDS011;9402;51.460;7.276;2022-10-31T07:56:39;24.73;;;7.17;;
18544;SDS011;9402;51.460;7.276;2022-10-31T07:58:41;15.93;;;7.83;;
18544;SDS011;9402;51.460;7.276;2022-10-31T08:00:45;18.00;;;5.93;;
18544;SDS011;9402;51.460;7.276;2022-10-31T08:02:48;11.10;;;6.00;;
18544;SDS011;9402;51.460;7.276;2022-10-31T08:04:58;11.80;;;5.10;;
18544;SDS011;9402;51.460;7.276;2022-10-31T08:07:01;11.33;;;5.53;;
18544;SDS011;9402;51.460;7.276;2022-10-31T08:09:04;19.33;;;7.57;;
18544;SDS011;9402;51.460;7.276;2022-10-31T08:11:06;17.10;;;8.07;;
18544;SDS011;9402;51.460;7.276;2022-10-31T08:13:09;27.63;;;8.77;;
18544;SDS011;9402;51.460;7.276;2022-10-31T08:15:13;18.60;;;8.13;;
18544;SDS011;9402;51.460;7.276;2022-10-31T08:17:16;14.20;;;6.27;;
18544;SDS011;9402;51.460;7.276;2022-10-31T08:19:19;23.50;;;7.53;;
18544;SDS011;9402;51.460;7.276;2022-10-31T08:21:21;14.67;;;7.10;;
18544;SDS011;9402;51.460;7.276;2022-10-31T08:23:24;27.73;;;6.60;;
18544;SDS011;9402;51.460;7.276;2022-10-31T08:25:26;13.13;;;6.30;;
18544;SDS011;9402;51.460;7.276;2022-10-31T08:27:30;12.57;;;6.67;;
18544;SDS011;9402;51.460;7.276;2022-10-31T08:29:32;13.90;;;5.77;;
18544;SDS011;9402;51.460;7.276;2022-10-31T08:31:35;15.07;;;6.43;;
18544;SDS011;9402;51.460;7.276;2022-10-31T08:33:38;20.60;;;7.90;;
18544;SDS011;9402;51.460;7.276;2022-10-31T08:35:41;18.80;;;8.00;;
18544;SDS011;9402;51.460;7.276;2022-10-31T08:37:43;17.40;;;6.40;;
18544;SDS011;9402;51.460;7.276;2022-10-31T08:39:46;16.00;;;7.53;;
18544;SDS011;9402;51.460;7.276;2022-10-31T08:41:48;21.50;;;8.77;;
18544;SDS011;9402;51.460;7.276;2022-10-31T08:43:51;23.73;;;8.17;;
18544;SDS011;9402;51.460;7.276;2022-10-31T08:45:53;16.53;;;7.63;;
18544;SDS011;9402;51.460;7.276;2022-10-31T08:47:59;25.37;;;8.67;;
18544;SDS011;9402;51.460;7.276;2022-10-31T08:50:04;22.83;;;8.57;;
18544;SDS011;9402;51.460;7.276;2022-10-31T08:52:07;23.43;;;7.33;;
18544;SDS011;9402;51.460;7.276;2022-10-31T08:54:09;18.03;;;7.53;;
18544;SDS011;9402;51.460;7.276;2022-10-31T08:56:11;18.70;;;7.77;;
18544;SDS011;9402;51.460;7.276;2022-10-31T08:58:14;19.77;;;8.90;;
18544;SDS011;9402;51.460;7.276;2022-10-31T09:00:18;19.50;;;7.77;;
18544;SDS011;9402;51.460;7.276;2022-10-31T09:02:21;18.37;;;8.00;;
18544;SDS011;9402;51.460;7.276;2022-10-31T09:04:23;25.20;;;7.73;;
18544;SDS011;9402;51.460;7.276;2022-10-31T09:06:27;19.73;;;8.17;;
18544;SDS011;9402;51.460;7.276;2022-10-31T09:08:30;22.33;;;10.83;;
18544;SDS011;9402;51.460;7.276;2022-10-31T09:10:34;19.80;;;8.60;;
18544;SDS011;9402;51.460;7.276;2022-10-31T09:12:37;21.10;;;8.83;;
18544;SDS011;9402;51.460;7.276;2022-10-31T09:14:39;25.23;;;10.10;;
18544;SDS011;9402;51.460;7.276;2022-10-31T09:16:42;25.13;;;10.63;;
18544;SDS011;9402;51.460;7.276;2022-10-31T09:18:44;25.80;;;9.40;;
18544;SDS011;9402;51.460;7.276;2022-10-31T09:20:47;26.97;;;11.57;;
18544;SDS011;9402;51.460;7.276;2022-10-31T09:22:56;24.13;;;9.03;;
18544;SDS011;9402;51.460;7.276;2022-10-31T09:24:59;20.40;;;8.30;;
18544;SDS011;9402;51.460;7.276;2022-10-31T09:27:01;25.03;;;9.30;;
18544;SDS011;9402;51.460;7.276;2022-10-31T09:29:04;28.50;;;9.70;;
18544;SDS011;9402;51.460;7.276;2022-10-31T09:31:09;26.67;;;8.83;;
18544;SDS011;9402;51.460;7.276;2022-10-31T09:33:12;26.70;;;9.77;;
18544;SDS011;9402;51.460;7.276;2022-10-31T09:35:14;27.90;;;9.77;;
18544;SDS011;9402;51.460;7.276;2022-10-31T09:37:17;23.90;;;9.20;;
18544;SDS011;9402;51.460;7.276;2022-10-31T09:39:21;20.53;;;8.77;;
18544;SDS011;9402;51.460;7.276;2022-10-31T09:41:24;21.27;;;10.30;;
18544;SDS011;9402;51.460;7.276;2022-10-31T09:43:33;18.40;;;8.90;;
18544;SDS011;9402;51.460;7.276;2022-10-31T09:45:53;16.10;;;7.20;;
18544;SDS011;9402;51.460;7.276;2022-10-31T09:48:05;26.40;;;7.53;;
18544;SDS011;9402;51.460;7.276;2022-10-31T09:50:35;23.63;;;8.90;;
18544;SDS011;9402;51.460;7.276;2022-10-31T09:52:40;16.70;;;7.87;;
18544;SDS011;9402;51.460;7.276;2022-10-31T09:54:51;21.40;;;9.13;;
18544;SDS011;9402;51.460;7.276;2022-10-31T09:56:55;25.43;;;8.57;;
18544;SDS011;9402;51.460;7.276;2022-10-31T09:59:00;24.13;;;9.03;;
18544;SDS011;9402;51.460;7.276;2022-10-31T10:01:05;22.73;;;8.30;;
18544;SDS011;9402;51.460;7.276;2022-10-31T10:03:14;29.50;;;10.40;;
18544;SDS011;9402;51.460;7.276;2022-10-31T10:05:27;17.23;;;8.40;;
18544;SDS011;9402;51.460;7.276;2022-10-31T10:07:35;19.37;;;8.23;;
18544;SDS011;9402;51.460;7.276;2022-10-31T10:09:43;30.23;;;9.33;;
18544;SDS011;9402;51.460;7.276;2022-10-31T10:11:50;29.70;;;8.33;;
18544;SDS011;9402;51.460;7.276;2022-10-31T10:16:28;23.60;;;7.43;;
18544;SDS011;9402;51.460;7.276;2022-10-31T10:18:42;20.20;;;9.73;;
18544;SDS011;9402;51.460;7.276;2022-10-31T10:20:59;25.20;;;9.93;;
18544;SDS011;9402;51.460;7.276;2022-10-31T10:23:21;18.20;;;8.73;;
18544;SDS011;9402;51.460;7.276;2022-10-31T10:25:32;26.73;;;11.20;;
18544;SDS011;9402;51.460;7.276;2022-10-31T10:27:41;24.03;;;10.53;;
18544;SDS011;9402;51.460;7.276;2022-10-31T10:29:52;35.30;;;14.90;;
18544;SDS011;9402;51.460;7.276;2022-10-31T10:32:02;29.30;;;10.70;;
18544;SDS011;9402;51.460;7.276;2022-10-31T10:34:11;33.13;;;11.43;;
18544;SDS011;9402;51.460;7.276;2022-10-31T10:36:20;23.13;;;11.27;;
18544;SDS011;9402;51.460;7.276;2022-10-31T10:38:27;24.77;;;12.03;;
18544;SDS011;9402;51.460;7.276;2022-10-31T10:40:33;31.00;;;12.37;;
18544;SDS011;9402;51.460;7.276;2022-10-31T10:42:35;30.57;;;12.87;;
18544;SDS011;9402;51.460;7.276;2022-10-31T10:44:55;27.30;;;12.10;;
18544;SDS011;9402;51.460;7.276;2022-10-31T10:47:16;25.27;;;10.50;;
18544;SDS011;9402;51.460;7.276;2022-10-31T10:49:43;40.40;;;11.73;;
18544;SDS011;9402;51.460;7.276;2022-10-31T10:51:50;32.17;;;13.23;;
18544;SDS011;9402;51.460;7.276;2022-10-31T10:54:00;32.20;;;11.77;;
18544;SDS011;9402;51.460;7.276;2022-10-31T10:56:15;30.03;;;12.27;;
18544;SDS011;9402;51.460;7.276;2022-10-31T10:58:19;27.80;;;10.83;;
18544;SDS011;9402;51.460;7.276;2022-10-31T11:00:22;32.57;;;13.70;;
18544;SDS011;9402;51.460;7.276;2022-10-31T11:02:27;31.20;;;12.20;;
18544;SDS011;9402;51.460;7.276;2022-10-31T11:04:33;26.17;;;11.77;;
18544;SDS011;9402;51.460;7.276;2022-10-31T11:06:36;27.87;;;12.70;;
18544;SDS011;9402;51.460;7.276;2022-10-31T11:08:39;39.83;;;13.37;;
18544;SDS011;9402;51.460;7.276;2022-10-31T11:10:41;31.43;;;12.97;;
18544;SDS011;9402;51.460;7.276;2022-10-31T11:12:44;36.90;;;12.27;;
18544;SDS011;9402;51.460;7.276;2022-10-31T11:14:59;28.20;;;11.40;;
18544;SDS011;9402;51.460;7.276;2022-10-31T11:17:08;26.63;;;10.20;;
18544;SDS011;9402;51.460;7.276;2022-10-31T11:19:19;30.00;;;11.13;;
18544;SDS011;9402;51.460;7.276;2022-10-31T11:21:26;33.93;;;10.23;;
18544;SDS011;9402;51.460;7.276;2022-10-31T11:23:30;29.40;;;11.43;;
18544;SDS011;9402;51.460;7.276;2022-10-31T11:25:32;40.40;;;11.30;;
18544;SDS011;9402;51.460;7.276;2022-10-31T11:27:35;28.33;;;9.50;;
18544;SDS011;9402;51.460;7.276;2022-10-31T11:29:37;33.87;;;11.70;;
18544;SDS011;9402;51.460;7.276;2022-10-31T11:31:40;32.63;;;9.93;;
18544;SDS011;9402;51.460;7.276;2022-10-31T11:33:44;25.93;;;10.23;;
18544;SDS011;9402;51.460;7.276;2022-10-31T11:35:51;25.83;;;10.27;;
18544;SDS011;9402;51.460;7.276;2022-10-31T11:37:55;28.30;;;10.07;;
18544;SDS011;9402;51.460;7.276;2022-10-31T11:40:00;22.83;;;8.60;;
18544;SDS011;9402;51.460;7.276;2022-10-31T11:42:05;25.10;;;9.33;;
18544;SDS011;9402;51.460;7.276;2022-10-31T11:44:10;21.47;;;8.40;;
18544;SDS011;9402;51.460;7.276;2022-10-31T11:46:15;33.57;;;9.10;;
18544;SDS011;9402;51.460;7.276;2022-10-31T11:48:22;21.03;;;7.77;;
18544;SDS011;9402;51.460;7.276;2022-10-31T11:50:34;21.30;;;8.70;;
18544;SDS011;9402;51.460;7.276;2022-10-31T11:52:40;16.97;;;7.63;;
18544;SDS011;9402;51.460;7.276;2022-10-31T11:54:44;19.90;;;8.77;;
18544;SDS011;9402;51.460;7.276;2022-10-31T11:56:49;32.57;;;11.90;;
18544;SDS011;9402;51.460;7.276;2022-10-31T11:58:54;25.37;;;9.30;;
18544;SDS011;9402;51.460;7.276;2022-10-31T12:00:57;37.67;;;9.20;;
18544;SDS011;9402;51.460;7.276;2022-10-31T12:03:10;19.63;;;7.97;;
18544;SDS011;9402;51.460;7.276;2022-10-31T12:05:26;15.93;;;7.23;;
18544;SDS011;9402;51.460;7.276;2022-10-31T12:07:32;23.83;;;7.67;;
18544;SDS011;9402;51.460;7.276;2022-10-31T12:09:36;14.90;;;6.40;;
18544;SDS011;9402;51.460;7.276;2022-10-31T12:11:43;17.40;;;7.10;;
18544;SDS011;9402;51.460;7.276;2022-10-31T12:13:57;22.03;;;7.00;;
18544;SDS011;9402;51.460;7.276;2022-10-31T12:16:08;13.20;;;6.90;;
18544;SDS011;9402;51.460;7.276;2022-10-31T12:18:17;14.93;;;5.77;;
18544;SDS011;9402;51.460;7.276;2022-10-31T12:20:35;13.13;;;6.03;;
18544;SDS011;9402;51.460;7.276;2022-10-31T12:22:47;14.60;;;6.77;;
18544;SDS011;9402;51.460;7.276;2022-10-31T12:25:15;16.80;;;6.13;;
18544;SDS011;9402;51.460;7.276;2022-10-31T12:27:26;9.67;;;5.47;;
18544;SDS011;9402;51.460;7.276;2022-10-31T12:29:39;15.70;;;7.30;;
18544;SDS011;9402;51.460;7.276;2022-10-31T12:32:02;16.63;;;6.90;;
18544;SDS011;9402;51.460;7.276;2022-10-31T12:34:23;18.37;;;6.27;;
18544;SDS011;9402;51.460;7.276;2022-10-31T12:36:43;13.30;;;5.13;;